Map

Track Data

SID SEASON NUMBER BASIN SUBBASIN NAME ISO_TIME NATURE LAT LON WMO_WIND WMO_PRES WMO_AGENCY TRACK_TYPE DIST2LAND LANDFALL IFLAG USA_AGENCY USA_ATCF_ID USA_LAT USA_LON USA_RECORD USA_STATUS USA_WIND USA_PRES USA_SSHS USA_R34_NE USA_R34_SE USA_R34_SW USA_R34_NW USA_R50_NE USA_R50_SE USA_R50_SW USA_R50_NW USA_R64_NE USA_R64_SE USA_R64_SW USA_R64_NW USA_POCI USA_ROCI USA_RMW USA_EYE TOKYO_LAT TOKYO_LON TOKYO_GRADE TOKYO_WIND TOKYO_PRES TOKYO_R50_DIR TOKYO_R50_LONG TOKYO_R50_SHORT TOKYO_R30_DIR TOKYO_R30_LONG TOKYO_R30_SHORT TOKYO_LAND CMA_LAT CMA_LON CMA_CAT CMA_WIND CMA_PRES HKO_LAT HKO_LON HKO_CAT HKO_WIND HKO_PRES NEWDELHI_LAT NEWDELHI_LON NEWDELHI_GRADE NEWDELHI_WIND NEWDELHI_PRES NEWDELHI_CI NEWDELHI_DP NEWDELHI_POCI REUNION_LAT REUNION_LON REUNION_TYPE REUNION_WIND REUNION_PRES REUNION_TNUM REUNION_CI REUNION_RMW REUNION_R34_NE REUNION_R34_SE REUNION_R34_SW REUNION_R34_NW REUNION_R50_NE REUNION_R50_SE REUNION_R50_SW REUNION_R50_NW REUNION_R64_NE REUNION_R64_SE REUNION_R64_SW REUNION_R64_NW BOM_LAT BOM_LON BOM_TYPE BOM_WIND BOM_PRES BOM_TNUM BOM_CI BOM_RMW BOM_R34_NE BOM_R34_SE BOM_R34_SW BOM_R34_NW BOM_R50_NE BOM_R50_SE BOM_R50_SW BOM_R50_NW BOM_R64_NE BOM_R64_SE BOM_R64_SW BOM_R64_NW BOM_ROCI BOM_POCI BOM_EYE BOM_POS_METHOD BOM_PRES_METHOD NADI_LAT NADI_LON NADI_CAT NADI_WIND NADI_PRES WELLINGTON_LAT WELLINGTON_LON WELLINGTON_WIND WELLINGTON_PRES DS824_LAT DS824_LON DS824_STAGE DS824_WIND DS824_PRES TD9636_LAT TD9636_LON TD9636_STAGE TD9636_WIND TD9636_PRES TD9635_LAT TD9635_LON TD9635_WIND TD9635_PRES TD9635_ROCI NEUMANN_LAT NEUMANN_LON NEUMANN_CLASS NEUMANN_WIND NEUMANN_PRES MLC_LAT MLC_LON MLC_CLASS MLC_WIND MLC_PRES USA_GUST BOM_GUST BOM_GUST_PER REUNION_GUST REUNION_GUST_PER USA_SEAHGT USA_SEARAD_NE USA_SEARAD_SE USA_SEARAD_SW USA_SEARAD_NW STORM_SPEED STORM_DIR
1893228N18340 1893 31 NA NA NOT_NAMED 1893-08-15 12:00:00 TS 18.1000 -20.2000 40 hurdat_atl main 415 415 O_____________ hurdat_atl AL061893 18.1000 -20.2000 TS 40 0 9 232
1893228N18340 1893 31 NA NA NOT_NAMED 1893-08-15 15:00:00 TS 17.8401 -20.5527 main 465 465 P_____________ AL061893 17.8401 -20.5527 TS 40 0 8 233
1893228N18340 1893 31 NA NA NOT_NAMED 1893-08-15 18:00:00 TS 17.6000 -20.9000 40 hurdat_atl main 487 487 O_____________ hurdat_atl AL061893 17.6000 -20.9000 TS 40 0 8 236
1893228N18340 1893 31 NA NA NOT_NAMED 1893-08-15 21:00:00 TS 17.3924 -21.2424 main 497 497 P_____________ AL061893 17.3924 -21.2424 TS 40 0 8 239
1893228N18340 1893 31 NA NA NOT_NAMED 1893-08-16 00:00:00 TS 17.2000 -21.6000 40 hurdat_atl main 520 520 O_____________ hurdat_atl AL061893 17.2000 -21.6000 TS 40 0 8 241
1893228N18340 1893 31 NA NA NOT_NAMED 1893-08-16 03:00:00 TS 16.9925 -21.9925 main 545 545 P_____________ AL061893 16.9925 -21.9925 TS 40 0 9 242
1893228N18340 1893 31 NA NA NOT_NAMED 1893-08-16 06:00:00 TS 16.8000 -22.4000 40 hurdat_atl main 574 574 O_____________ hurdat_atl AL061893 16.8000 -22.4000 TS 40 0 8 245
1893228N18340 1893 31 NA NA NOT_NAMED 1893-08-16 09:00:00 TS 16.6424 -22.7924 main 606 606 P_____________ AL061893 16.6424 -22.7924 TS 40 0 8 249
1893228N18340 1893 31 NA NA NOT_NAMED 1893-08-16 12:00:00 TS 16.5000 -23.2000 40 hurdat_atl main 643 643 O_____________ hurdat_atl AL061893 16.5000 -23.2000 TS 40 0 9 250
1893228N18340 1893 31 NA NA NOT_NAMED 1893-08-16 15:00:00 TS 16.3425 -23.6425 main 677 677 P_____________ AL061893 16.3425 -23.6425 TS 40 0 9 251
1893228N18340 1893 31 NA NA NOT_NAMED 1893-08-16 18:00:00 TS 16.2000 -24.1000 40 hurdat_atl main 727 727 O_____________ hurdat_atl AL061893 16.2000 -24.1000 TS 40 0 9 254
1893228N18340 1893 31 NA NA NOT_NAMED 1893-08-16 21:00:00 TS 16.0924 -24.5424 main 766 766 P_____________ AL061893 16.0924 -24.5424 TS 40 0 9 257
1893228N18340 1893 31 NA NA NOT_NAMED 1893-08-17 00:00:00 TS 16.0000 -25.0000 40 hurdat_atl main 817 817 O_____________ hurdat_atl AL061893 16.0000 -25.0000 TS 40 0 9 258
1893228N18340 1893 31 NA NA NOT_NAMED 1893-08-17 03:00:00 TS 15.9000 -25.5000 main 868 868 P_____________ AL061893 15.9000 -25.5000 TS 40 0 10 258
1893228N18340 1893 31 NA NA NOT_NAMED 1893-08-17 06:00:00 TS 15.8000 -26.0000 40 hurdat_atl main 920 920 O_____________ hurdat_atl AL061893 15.8000 -26.0000 TS 40 0 9 257
1893228N18340 1893 31 NA NA NOT_NAMED 1893-08-17 09:00:00 TS 15.6924 -26.4575 main 972 972 P_____________ AL061893 15.6924 -26.4575 TS 40 0 9 257
1893228N18340 1893 31 NA NA NOT_NAMED 1893-08-17 12:00:00 TS 15.6000 -26.9000 40 hurdat_atl main 1014 1014 O_____________ hurdat_atl AL061893 15.6000 -26.9000 TS 40 0 9 260
1893228N18340 1893 31 NA NA NOT_NAMED 1893-08-17 15:00:00 TS 15.5425 -27.3574 main 1066 1066 P_____________ AL061893 15.5425 -27.3574 TS 42 0 9 263
1893228N18340 1893 31 NA NA NOT_NAMED 1893-08-17 18:00:00 TS 15.5000 -27.8000 45 hurdat_atl main 1109 1109 O_____________ hurdat_atl AL061893 15.5000 -27.8000 TS 45 0 8 263
1893228N18340 1893 31 NA NA NOT_NAMED 1893-08-17 21:00:00 TS 15.4424 -28.2075 main 1152 1152 P_____________ AL061893 15.4424 -28.2075 TS 45 0 8 263
1893228N18340 1893 31 NA NA NOT_NAMED 1893-08-18 00:00:00 TS 15.4000 -28.6000 45 hurdat_atl main 1194 1194 O_____________ hurdat_atl AL061893 15.4000 -28.6000 TS 45 0 8 266
1893228N18340 1893 31 NA NA NOT_NAMED 1893-08-18 03:00:00 TS 15.3849 -28.9925 main 1237 1237 P_____________ AL061893 15.3849 -28.9925 TS 47 0 8 270
1893228N18340 1893 31 NA NA NOT_NAMED 1893-08-18 06:00:00 TS 15.4000 -29.4000 50 hurdat_atl main 1280 1280 O_____________ hurdat_atl AL061893 15.4000 -29.4000 TS 50 0 8 274
1893228N18340 1893 31 NA NA NOT_NAMED 1893-08-18 09:00:00 TS 15.4424 -29.8350 main 1323 1323 P_____________ AL061893 15.4424 -29.8350 TS 50 0 9 277
1893228N18340 1893 31 NA NA NOT_NAMED 1893-08-18 12:00:00 TS 15.5000 -30.3000 50 hurdat_atl main 1377 1377 O_____________ hurdat_atl AL061893 15.5000 -30.3000 TS 50 0 9 276
1893228N18340 1893 31 NA NA NOT_NAMED 1893-08-18 15:00:00 TS 15.5424 -30.7851 main 1431 1431 P_____________ AL061893 15.5424 -30.7851 TS 52 0 10 276
1893228N18340 1893 31 NA NA NOT_NAMED 1893-08-18 18:00:00 TS 15.6000 -31.3000 55 hurdat_atl main 1484 1484 O_____________ hurdat_atl AL061893 15.6000 -31.3000 TS 55 0 10 278
1893228N18340 1893 31 NA NA NOT_NAMED 1893-08-18 21:00:00 TS 15.6847 -31.8201 main 1538 1538 P_____________ AL061893 15.6847 -31.8201 TS 55 0 11 281
1893228N18340 1893 31 NA NA NOT_NAMED 1893-08-19 00:00:00 TS 15.8000 -32.4000 55 hurdat_atl main 1603 1603 O_____________ hurdat_atl AL061893 15.8000 -32.4000 TS 55 0 12 282
1893228N18340 1893 31 NA NA NOT_NAMED 1893-08-19 03:00:00 TS 15.9348 -33.0626 main 1678 1678 P_____________ AL061893 15.9348 -33.0626 TS 57 0 14 283
1893228N18340 1893 31 NA NA NOT_NAMED 1893-08-19 06:00:00 TS 16.1000 -33.8000 60 hurdat_atl main 1754 1754 O_____________ hurdat_atl AL061893 16.1000 -33.8000 TS 60 0 15 284
1893228N18340 1893 31 NA NA NOT_NAMED 1893-08-19 09:00:00 TS 16.2845 -34.5553 main 1841 1841 P_____________ AL061893 16.2845 -34.5553 TS 62 0 16 285
1893228N18340 1893 31 NA NA NOT_NAMED 1893-08-19 12:00:00 TS 16.5000 -35.4000 65 hurdat_atl main 1927 1927 O_____________ hurdat_atl AL061893 16.5000 -35.4000 HU 65 1 18 285
1893228N18340 1893 31 NA NA NOT_NAMED 1893-08-19 15:00:00 TS 16.7422 -36.3552 main 2035 2035 P_____________ AL061893 16.7422 -36.3552 HU 67 1 20 285
1893228N18340 1893 31 NA NA NOT_NAMED 1893-08-19 18:00:00 TS 17.0000 -37.4000 70 hurdat_atl main 2079 2016 O_____________ hurdat_atl AL061893 17.0000 -37.4000 HU 70 1 21 284
1893228N18340 1893 31 NA NA NOT_NAMED 1893-08-19 21:00:00 TS 17.2495 -38.4778 main 2008 1959 P_____________ AL061893 17.2495 -38.4778 HU 72 1 22 283
1893228N18340 1893 31 NA NA NOT_NAMED 1893-08-20 00:00:00 TS 17.5000 -39.6000 75 hurdat_atl main 1952 1893 O_____________ hurdat_atl AL061893 17.5000 -39.6000 HU 75 1 22 283
1893228N18340 1893 31 NA NA NOT_NAMED 1893-08-20 03:00:00 TS 17.7422 -40.7579 main 1886 1850 P_____________ AL061893 17.7422 -40.7579 HU 77 1 22 283
1893228N18340 1893 31 NA NA NOT_NAMED 1893-08-20 06:00:00 TS 18.0000 -41.9000 80 hurdat_atl main 1844 1784 O_____________ hurdat_atl AL061893 18.0000 -41.9000 HU 80 1 25 283
1893228N18340 1893 31 NA NA NOT_NAMED 1893-08-20 09:00:00 TS 18.2865 -43.3065 main 1781 1735 P_____________ AL061893 18.2920 -42.9876 HU 82 1 25 283
1893228N18340 1893 31 NA NA NOT_NAMED 1893-08-20 12:00:00 TS 18.5600 -44.4800 85 hurdat_atl main 1739 1711 O____________O hurdat_atl AL061893 18.6000 -44.0000 HU 85 2 18.4000 -46.4000 HU 85 21 284
1893228N18340 1893 31 NA NA NOT_NAMED 1893-08-20 15:00:00 TS 18.8039 -45.4642 main 1706 1688 P____________P AL061893 18.8992 -44.9229 HU 85 2 18.5503 -46.9023 HU 85 18 285
1893228N18340 1893 31 NA NA NOT_NAMED 1893-08-20 18:00:00 TS 19.0333 -46.3333 85 hurdat_atl main 1688 1678 O____________O hurdat_atl AL061893 19.2000 -45.8000 HU 85 2 18.7000 -47.4000 HU 85 16 287
1893228N18340 1893 31 NA NA NOT_NAMED 1893-08-20 21:00:00 TS 19.2780 -47.0978 main 1684 1671 P____________P AL061893 19.4921 -46.7005 HU 85 2 18.8498 -47.8926 HU 85 15 289
1893228N18340 1893 31 NA NA NOT_NAMED 1893-08-21 00:00:00 TS 19.5333 -47.8667 85 hurdat_atl main 1668 1665 O____________O hurdat_atl AL061893 19.8000 -47.6000 HU 85 2 19.0000 -48.4000 HU 85 16 290
1893228N18340 1893 31 NA NA NOT_NAMED 1893-08-21 03:00:00 TS 19.8215 -48.6575 main 1665 1627 P____________P AL061893 20.1573 -48.5149 HU 85 2 19.1499 -48.9426 HU 85 16 291
1893228N18340 1893 31 NA NA NOT_NAMED 1893-08-21 06:00:00 TS 20.1000 -49.4333 85 hurdat_atl main 1627 1586 O____________O hurdat_atl AL061893 20.5000 -49.4000 HU 85 2 19.3000 -49.5000 HU 85 15 290
1893228N18340 1893 31 NA NA NOT_NAMED 1893-08-21 09:00:00 TS 20.3313 -50.1653 main 1578 1547 P____________P AL061893 20.7720 -50.2229 HU 85 2 19.4498 -50.0501 HU 85 14 288
1893228N18340 1893 31 NA NA NOT_NAMED 1893-08-21 12:00:00 TS 20.5333 -50.8667 85 hurdat_atl main 1539 1499 O____________O hurdat_atl AL061893 21.0000 -51.0000 HU 85 2 19.6000 -50.6000 HU 85 14 287
1893228N18340 1893 31 NA NA NOT_NAMED 1893-08-21 15:00:00 TS 20.7263 -51.5577 main 1488 1430 P____________P AL061893 21.2146 -51.7577 HU 85 2 19.7499 -51.1576 HU 85 13 286
1893228N18340 1893 31 NA NA NOT_NAMED 1893-08-21 18:00:00 TS 20.9000 -52.2333 85 hurdat_atl main 1430 1362 O____________O hurdat_atl AL061893 21.4000 -52.5000 HU 85 2 19.9000 -51.7000 HU 85 13 285
1893228N18340 1893 31 NA NA NOT_NAMED 1893-08-21 21:00:00 TS 21.0622 -52.9051 main 1362 1303 P____________P AL061893 21.5647 -53.2501 HU 85 2 20.0574 -52.2150 HU 85 13 284
1893228N18340 1893 31 NA NA NOT_NAMED 1893-08-22 00:00:00 TS 21.2000 -53.5667 85 hurdat_atl main 1293 1235 O____________O hurdat_atl AL061893 21.7000 -54.0000 HU 85 2 20.2000 -52.7000 HU 85 12 281
1893228N18340 1893 31 NA NA NOT_NAMED 1893-08-22 03:00:00 TS 21.3097 -54.2118 main 1235 1177 P____________P AL061893 21.8147 -54.7501 HU 85 2 20.2996 -53.1353 HU 85 12 279
1893228N18340 1893 31 NA NA NOT_NAMED 1893-08-22 06:00:00 TS 21.4000 -54.8667 85 972 hurdat_atl main 1167 1110 O____________O hurdat_atl AL061893 21.9000 -55.5000 HU 85 972 2 20.4000 -53.6000 HU 85 972 13 278
1893228N18340 1893 31 NA NA NOT_NAMED 1893-08-22 09:00:00 TS 21.4881 -55.5568 main 1100 1045 P____________P AL061893 21.9572 -56.2502 HU 87 2 20.5499 -54.1699 HU 87 13 277
1893228N18340 1893 31 NA NA NOT_NAMED 1893-08-22 12:00:00 TS 21.5667 -56.2667 90 hurdat_atl main 1035 976 O____________O hurdat_atl AL061893 22.0000 -57.0000 HU 90 2 20.7000 -54.8000 HU 90 13 276
1893228N18340 1893 31 NA NA NOT_NAMED 1893-08-22 15:00:00 TS 21.6281 -56.9835 main 966 903 P____________P AL061893 22.0422 -57.7502 HU 92 2 20.7999 -55.4502 HU 92 13 276
1893228N18340 1893 31 NA NA NOT_NAMED 1893-08-22 18:00:00 TS 21.7000 -57.7000 95 hurdat_atl main 903 842 O____________O hurdat_atl AL061893 22.1000 -58.5000 HU 95 2 20.9000 -56.1000 HU 95 13 278
1893228N18340 1893 31 NA NA NOT_NAMED 1893-08-22 21:00:00 TS 21.8139 -58.4074 main 842 783 P____________P AL061893 22.1998 -59.2574 HU 97 3 21.0422 -56.7075 HU 97 13 280
1893228N18340 1893 31 NA NA NOT_NAMED 1893-08-23 00:00:00 TS 21.9333 -59.1000 100 hurdat_atl main 783 735 O____________O hurdat_atl AL061893 22.3000 -60.0000 HU 100 3 21.2000 -57.3000 MH 100 13 279
1893228N18340 1893 31 NA NA NOT_NAMED 1893-08-23 03:00:00 TS 22.0239 -59.7743 main 726 682 P____________P AL061893 22.3572 -60.7152 HU 102 3 21.3572 -57.8926 MH 102 12 278
1893228N18340 1893 31 NA NA NOT_NAMED 1893-08-23 06:00:00 TS 22.1000 -60.4333 105 hurdat_atl main 682 633 O____________O hurdat_atl AL061893 22.4000 -61.4000 HU 105 3 21.5000 -58.5000 MH 105 12 277
1893228N18340 1893 31 NA NA NOT_NAMED 1893-08-23 09:00:00 TS 22.1715 -61.0934 main 633 588 P____________P AL061893 22.4497 -62.0650 HU 105 3 21.6149 -59.1501 MH 105 12 276
1893228N18340 1893 31 NA NA NOT_NAMED 1893-08-23 12:00:00 TS 22.2333 -61.7333 105 hurdat_atl main 588 555 O____________O hurdat_atl AL061893 22.5000 -62.7000 HU 105 3 21.7000 -59.8000 MH 105 12 275
1893228N18340 1893 31 NA NA NOT_NAMED 1893-08-23 15:00:00 TS 22.2781 -62.3485 main 555 519 P____________P AL061893 22.5423 -63.3226 HU 105 3 21.7496 -60.4003 MH 105 11 275
1893228N18340 1893 31 NA NA NOT_NAMED 1893-08-23 18:00:00 TS 22.3333 -62.9333 105 hurdat_atl main 519 497 O____________O hurdat_atl AL061893 22.6000 -63.9000 HU 105 3 21.8000 -61.0000 MH 105 11 278
1893228N18340 1893 31 NA NA NOT_NAMED 1893-08-23 21:00:00 TS 22.4331 -63.4932 main 497 487 P____________P AL061893 22.6997 -64.4149 HU 105 3 21.8999 -61.6499 MH 105 10 281
1893228N18340 1893 31 NA NA NOT_NAMED 1893-08-24 00:00:00 TS 22.5333 -64.0333 105 hurdat_atl main 487 481 O____________O hurdat_atl AL061893 22.8000 -64.9000 HU 105 3 22.0000 -62.3000 MH 105 10 279
1893228N18340 1893 31 NA NA NOT_NAMED 1893-08-24 03:00:00 TS 22.5881 -64.5618 main 481 472 P____________P AL061893 22.8573 -65.3926 HU 105 3 22.0496 -62.9003 MH 105 10 276
1893228N18340 1893 31 NA NA NOT_NAMED 1893-08-24 06:00:00 TS 22.6333 -65.1000 105 hurdat_atl main 472 470 O____________O hurdat_atl AL061893 22.9000 -65.9000 HU 105 3 22.1000 -63.5000 MH 105 10 276
1893228N18340 1893 31 NA NA NOT_NAMED 1893-08-24 09:00:00 TS 22.6874 -65.6785 main 480 480 P____________P AL061893 22.9424 -66.4426 HU 105 3 22.1774 -64.1502 MH 105 11 277
1893228N18340 1893 31 NA NA NOT_NAMED 1893-08-24 12:00:00 TS 22.7667 -66.2667 105 hurdat_atl main 492 475 O____________O hurdat_atl AL061893 23.0000 -67.0000 HU 105 3 22.3000 -64.8000 MH 105 11 280
1893228N18340 1893 31 NA NA NOT_NAMED 1893-08-24 15:00:00 TS 22.8822 -66.8285 main 478 458 P____________P AL061893 23.0847 -67.5426 HU 105 3 22.4771 -65.4001 MH 105 11 284
1893228N18340 1893 31 NA NA NOT_NAMED 1893-08-24 18:00:00 TS 23.0333 -67.4000 105 hurdat_atl main 458 452 O____________O hurdat_atl AL061893 23.2000 -68.1000 HU 105 3 22.7000 -66.0000 MH 105 948 11 287
1893228N18340 1893 31 NA NA NOT_NAMED 1893-08-24 21:00:00 TS 23.2116 -68.0166 main 452 441 P____________P AL061893 23.3424 -68.7000 HU 105 3 22.9499 -66.6500 MH 105 12 288
1893228N18340 1893 31 NA NA NOT_NAMED 1893-08-25 00:00:00 TS 23.4000 -68.6333 105 hurdat_atl main 448 441 O____________O hurdat_atl AL061893 23.5000 -69.3000 HU 105 3 23.2000 -67.3000 MH 105 11 288
1893228N18340 1893 31 NA NA NOT_NAMED 1893-08-25 03:00:00 TS 23.5688 -69.2002 main 448 439 P____________P AL061893 23.6496 -69.8502 HU 105 3 23.4071 -67.9004 MH 105 11 288
1893228N18340 1893 31 NA NA NOT_NAMED 1893-08-25 06:00:00 TS 23.7333 -69.7667 105 hurdat_atl main 431 408 O____________O hurdat_atl AL061893 23.8000 -70.4000 HU 105 3 23.6000 -68.5000 MH 105 11 287
1893228N18340 1893 31 NA NA NOT_NAMED 1893-08-25 09:00:00 TS 23.8973 -70.3735 main 402 380 P____________P AL061893 23.9498 -70.9851 HU 105 3 23.7924 -69.1502 MH 105 12 286
1893228N18340 1893 31 NA NA NOT_NAMED 1893-08-25 12:00:00 TS 24.0667 -71.0000 105 hurdat_atl main 383 364 O____________O hurdat_atl AL061893 24.1000 -71.6000 HU 105 3 24.0000 -69.8000 MH 105 12 287
1893228N18340 1893 31 NA NA NOT_NAMED 1893-08-25 15:00:00 TS 24.2497 -71.6285 main 364 364 P____________P AL061893 24.2498 -72.2426 HU 105 3 24.2496 -70.4001 MH 105 12 288
1893228N18340 1893 31 NA NA NOT_NAMED 1893-08-25 18:00:00 TS 24.4333 -72.2667 105 hurdat_atl main 364 364 O____________O hurdat_atl AL061893 24.4000 -72.9000 HU 105 3 24.5000 -71.0000 MH 105 971 12 286
1893228N18340 1893 31 NA NA NOT_NAMED 1893-08-25 21:00:00 TS 24.5947 -72.9120 main 380 380 P____________P AL061893 24.5421 -73.5428 HU 105 3 24.6999 -71.6504 MH 105 12 286
1893228N18340 1893 31 NA NA NOT_NAMED 1893-08-26 00:00:00 TS 24.7667 -73.5667 105 hurdat_atl main 404 357 O____________O hurdat_atl AL061893 24.7000 -74.2000 HU 105 3 24.9000 -72.3000 MH 105 13 288
1893228N18340 1893 31 NA NA NOT_NAMED 1893-08-26 03:00:00 TS 24.9781 -74.2334 main 357 292 P____________P AL061893 24.8924 -74.9000 HU 105 3 25.1496 -72.9001 MH 105 13 290
1893228N18340 1893 31 NA NA NOT_NAMED 1893-08-26 06:00:00 TS 25.2000 -74.9000 105 hurdat_atl main 292 243 O____________O hurdat_atl AL061893 25.1000 -75.6000 HU 105 3 25.4000 -73.5000 MH 105 13 289
1893228N18340 1893 31 NA NA NOT_NAMED 1893-08-26 09:00:00 TS 25.3923 -75.5629 main 234 187 P____________P AL061893 25.2848 -76.2729 HU 105 3 25.6073 -74.1428 MH 105 12 289
1893228N18340 1893 31 NA NA NOT_NAMED 1893-08-26 12:00:00 TS 25.6000 -76.2000 105 hurdat_atl main 187 143 O____________O hurdat_atl AL061893 25.5000 -76.9000 HU 105 3 25.8000 -74.8000 MH 105 12 291
1893228N18340 1893 31 NA NA NOT_NAMED 1893-08-26 15:00:00 TS 25.8291 -76.8162 main 143 128 P____________P AL061893 25.7623 -77.4803 HU 105 3 25.9626 -75.4880 MH 105 12 297
1893228N18340 1893 31 NA NA NOT_NAMED 1893-08-26 18:00:00 TS 26.1333 -77.3667 105 hurdat_atl main 126 126 O____________O hurdat_atl AL061893 26.1000 -78.0000 HU 105 3 26.2000 -76.1000 MH 105 12 309
1893228N18340 1893 31 NA NA NOT_NAMED 1893-08-26 21:00:00 TS 26.5505 -77.8228 main 168 167 P____________P AL061893 26.5197 -78.4653 HU 105 3 26.6120 -76.5377 MH 105 12 319
1893228N18340 1893 31 NA NA NOT_NAMED 1893-08-27 00:00:00 TS 27.0333 -78.2333 105 hurdat_atl main 179 149 O____________O hurdat_atl AL061893 27.0000 -78.9000 HU 105 3 27.1000 -76.9000 MH 105 12 321
1893228N18340 1893 31 NA NA NOT_NAMED 1893-08-27 03:00:00 TS 27.5117 -78.6842 main 149 130 P____________P AL061893 27.4926 -79.3799 HU 105 3 27.5498 -77.2929 MH 105 12 322
1893228N18340 1893 31 NA NA NOT_NAMED 1893-08-27 06:00:00 TS 28.0000 -79.1000 105 hurdat_atl main 135 107 O____________O hurdat_atl AL061893 28.0000 -79.8000 HU 105 3 28.0000 -77.7000 MH 105 12 326
1893228N18340 1893 31 NA NA NOT_NAMED 1893-08-27 09:00:00 TS 28.4932 -79.4470 main 107 84 P____________P AL061893 28.5223 -80.0953 HU 105 3 28.4350 -78.1504 MH 105 11 330
1893228N18340 1893 31 NA NA NOT_NAMED 1893-08-27 12:00:00 TS 28.9667 -79.7333 105 hurdat_atl main 95 88 O____________O hurdat_atl AL061893 29.0000 -80.3000 HU 105 3 28.9000 -78.6000 MH 105 10 332
1893228N18340 1893 31 NA NA NOT_NAMED 1893-08-27 15:00:00 TS 29.3858 -79.9944 main 93 89 P____________P AL061893 29.3574 -80.4803 HU 102 3 29.4424 -79.0225 MH 102 9 334
1893228N18340 1893 31 NA NA NOT_NAMED 1893-08-27 18:00:00 TS 29.8000 -80.2000 100 hurdat_atl main 97 97 O____________O hurdat_atl AL061893 29.7000 -80.6000 HU 100 3 30.0000 -79.4000 MH 100 9 342
1893228N18340 1893 31 NA NA NOT_NAMED 1893-08-27 21:00:00 TS 30.2337 -80.3206 main 106 85 P____________P AL061893 30.1007 -80.6341 HU 100 3 30.4996 -79.6936 MH 100 10 346
1893228N18340 1893 31 NA NA NOT_NAMED 1893-08-28 00:00:00 TS 30.7333 -80.4667 100 954 hurdat_atl main 85 58 O____________O hurdat_atl AL061893 30.6000 -80.7000 HU 100 954 3 31.0000 -80.0000 MH 100 954 11 340
1893228N18340 1893 31 NA NA NOT_NAMED 1893-08-28 03:00:00 TS 31.2414 -80.7436 main 58 11 P____________P AL061893 31.1171 -80.9121 HU 100 954 3 31.4898 -80.4065 MH 97 956 13 337
1893228N18340 1893 31 NA NA NOT_NAMED 1893-08-28 05:00:00 TS 31.7580 -80.9753 100 954 hurdat_atl main 11 0 O____________P hurdat_atl AL061893 31.7000 -81.1000 L HU 100 954 3 31.8739 -80.7260 MH 95 957 18 341
1893228N18340 1893 31 NA NA NOT_NAMED 1893-08-28 06:00:00 TS 32.1000 -81.1000 90 958 hurdat_atl main 0 0 O____________O hurdat_atl AL061893 32.1000 -81.2000 HU 90 958 2 32.1000 -80.9000 HU 95 958 20 345
1893228N18340 1893 31 NA NA NOT_NAMED 1893-08-28 09:00:00 TS 33.0562 -81.3812 main 0 0 P____________P AL061893 33.0988 -81.2751 HU 82 1 32.9709 -81.5933 HU 85 18 351
1893228N18340 1893 31 NA NA NOT_NAMED 1893-08-28 12:00:00 TS 33.9000 -81.4333 75 hurdat_atl main 0 0 O____________O hurdat_atl AL061893 33.9000 -81.1000 HU 75 1 33.9000 -82.1000 HU 75 16 3
1893228N18340 1893 31 NA NA NOT_NAMED 1893-08-28 15:00:00 TS 34.6796 -81.2695 main 0 0 P____________P AL061893 34.6799 -80.8598 HU 70 1 34.6790 -82.0888 HU 70 16 16
1893228N18340 1893 31 NA NA NOT_NAMED 1893-08-28 18:00:00 TS 35.4000 -80.9000 65 hurdat_atl main 0 0 O____________O hurdat_atl AL061893 35.4000 -80.5000 HU 65 1 35.4000 -81.7000 HU 65 16 25
1893228N18340 1893 31 NA NA NOT_NAMED 1893-08-28 21:00:00 TS 36.0919 -80.4665 main 0 0 P____________P AL061893 36.0921 -80.1083 HU 62 0 36.0916 -81.1830 HU 62 16 31
1893228N18340 1893 31 NA NA NOT_NAMED 1893-08-29 00:00:00 TS 36.8000 -79.8667 60 hurdat_atl main 0 0 O____________O hurdat_atl AL061893 36.8000 -79.6000 TS 60 0 36.8000 -80.4000 TS 60 18 36
1893228N18340 1893 31 NA NA NOT_NAMED 1893-08-29 03:00:00 TS 37.5695 -79.1188 main 0 0 P____________P AL061893 37.5690 -78.9948 TS 57 0 37.5707 -79.3669 TS 57 21 40
1893228N18340 1893 31 NA NA NOT_NAMED 1893-08-29 06:00:00 TS 38.4000 -78.2000 55 hurdat_atl main 0 0 O____________O hurdat_atl AL061893 38.4000 -78.2000 TS 55 0 38.4000 -78.2000 TS 55 23 42
1893228N18340 1893 31 NA NA NOT_NAMED 1893-08-29 09:00:00 TS 39.2848 -77.1464 main 0 0 P____________P AL061893 39.2853 -77.1670 TS 55 0 39.2838 -77.1050 TS 55 25 43
1893228N18340 1893 31 NA NA NOT_NAMED 1893-08-29 12:00:00 TS 40.2000 -76.0000 55 hurdat_atl main 0 0 O____________O hurdat_atl AL061893 40.2000 -76.0000 TS 55 0 40.2000 -76.0000 TS 55 25 44
1893228N18340 1893 31 NA NA NOT_NAMED 1893-08-29 15:00:00 TS 41.0600 -74.9023 main 0 0 P____________P AL061893 41.0600 -74.9023 TS 55 0 41.0600 -74.9023 TS 55 25 44
1893228N18340 1893 31 NA NA NOT_NAMED 1893-08-29 18:00:00 TS 42.0000 -73.7000 55 hurdat_atl main 0 0 O____________O hurdat_atl AL061893 42.0000 -73.7000 TS 55 0 42.0000 -73.7000 TS 55 28 44
1893228N18340 1893 31 NA NA NOT_NAMED 1893-08-29 21:00:00 TS 43.1127 -72.2518 main 0 0 P____________P AL061893 43.1126 -72.2518 TS 52 0 43.1126 -72.2518 TS 52 32 44
1893228N18340 1893 31 NA NA NOT_NAMED 1893-08-30 00:00:00 TS 44.3000 -70.7000 50 hurdat_atl main 0 0 O____________O hurdat_atl AL061893 44.3000 -70.7000 TS 50 0 44.3000 -70.7000 TS 50 32 43
1893228N18340 1893 31 NA NA NOT_NAMED 1893-08-30 03:00:00 TS 45.4713 -69.1747 main 0 0 P____________P AL061893 45.4713 -69.1747 TS 50 0 45.4713 -69.1747 TS 50 31 42
1893228N18340 1893 31 NA NA NOT_NAMED 1893-08-30 06:00:00 TS 46.6000 -67.7000 50 hurdat_atl main 0 0 O____________O hurdat_atl AL061893 46.6000 -67.7000 TS 50 0 46.6000 -67.7000 TS 50 30 42
1893228N18340 1893 31 NA NA NOT_NAMED 1893-08-30 09:00:00 TS 47.6590 -66.2725 main 0 0 P____________P AL061893 47.6590 -66.2725 TS 50 0 47.6590 -66.2725 TS 50 27 42
1893228N18340 1893 31 NA NA NOT_NAMED 1893-08-30 12:00:00 TS 48.6000 -65.0000 50 hurdat_atl main 0 0 O____________O hurdat_atl AL061893 48.6000 -65.0000 TS 50 0 48.6000 -65.0000 TS 50 23 41
1893228N18340 1893 31 NA NA NOT_NAMED 1893-08-30 15:00:00 TS 49.4072 -63.9481 main 18 0 P____________P AL061893 49.4072 -63.9481 TS 50 0 49.4072 -63.9481 TS 50 20 41
1893228N18340 1893 31 NA NA NOT_NAMED 1893-08-30 18:00:00 MX 50.1000 -63.0000 50 hurdat_atl main 22 0 O____________O hurdat_atl AL061893 50.1000 -63.0000 TS 50 0 50.1000 -63.0000 EX 50 18 44
1893228N18340 1893 31 NA NA NOT_NAMED 1893-08-30 21:00:00 MX 50.7444 -61.9480 main 0 0 P____________P AL061893 50.7444 -61.9480 TS 50 0 50.7444 -61.9480 EX 50 18 48
1893228N18340 1893 31 NA NA NOT_NAMED 1893-08-31 00:00:00 ET 51.3000 -60.9000 50 hurdat_atl main 0 0 O____________O hurdat_atl AL061893 51.3000 -60.9000 EX 50 -4 51.3000 -60.9000 EX 50 16 51
1893228N18340 1893 31 NA NA NOT_NAMED 1893-08-31 03:00:00 ET 51.7791 -59.8820 main 0 0 P____________P AL061893 51.7791 -59.8820 EX 50 -4 51.7791 -59.8820 EX 50 15 54
1893228N18340 1893 31 NA NA NOT_NAMED 1893-08-31 06:00:00 ET 52.2000 -58.9000 50 hurdat_atl main 0 0 O____________O hurdat_atl AL061893 52.2000 -58.9000 EX 50 -4 52.2000 -58.9000 EX 50 15 55
1893228N18340 1893 31 NA NA NOT_NAMED 1893-08-31 09:00:00 ET 52.6217 -57.9337 main 0 0 P____________P AL061893 52.6217 -57.9337 EX 50 -4 52.6217 -57.9337 EX 50 14 55
1893228N18340 1893 31 NA NA NOT_NAMED 1893-08-31 12:00:00 ET 53.0000 -57.0000 50 hurdat_atl main 0 0 O____________O hurdat_atl AL061893 53.0000 -57.0000 EX 50 -4 53.0000 -57.0000 EX 50 13 58
1893228N18340 1893 31 NA NA NOT_NAMED 1893-08-31 15:00:00 ET 53.3218 -56.0832 main 0 0 P____________P AL061893 53.3218 -56.0832 EX 50 -4 53.3218 -56.0832 EX 50 12 61
1893228N18340 1893 31 NA NA NOT_NAMED 1893-08-31 18:00:00 ET 53.6000 -55.2000 50 hurdat_atl main 51 51 O____________O hurdat_atl AL061893 53.6000 -55.2000 EX 50 -4 53.6000 -55.2000 EX 50 12 62
1893228N18340 1893 31 NA NA NOT_NAMED 1893-08-31 21:00:00 ET 53.8642 -54.3414 main 116 116 P____________P AL061893 53.8642 -54.3414 EX 50 -4 53.8642 -54.3414 EX 50 11 63
1893228N18340 1893 31 NA NA NOT_NAMED 1893-09-01 00:00:00 ET 54.1000 -53.5000 50 hurdat_atl main 172 172 O____________O hurdat_atl AL061893 54.1000 -53.5000 EX 50 -4 54.1000 -53.5000 EX 50 11 65
1893228N18340 1893 31 NA NA NOT_NAMED 1893-09-01 03:00:00 ET 54.3217 -52.6571 main 228 228 P____________P AL061893 54.3217 -52.6571 EX 50 -4 54.3217 -52.6571 EX 50 11 68
1893228N18340 1893 31 NA NA NOT_NAMED 1893-09-01 06:00:00 ET 54.5000 -51.8000 50 hurdat_atl main 290 290 O____________O hurdat_atl AL061893 54.5000 -51.8000 EX 50 -4 54.5000 -51.8000 EX 50 11 72
1893228N18340 1893 31 NA NA NOT_NAMED 1893-09-01 09:00:00 ET 54.6443 -50.9157 main 348 348 P____________P AL061893 54.6443 -50.9157 EX 50 -4 54.6443 -50.9157 EX 50 11 79
1893228N18340 1893 31 NA NA NOT_NAMED 1893-09-01 12:00:00 ET 54.7000 -50.0000 50 hurdat_atl main 407 407 O____________O hurdat_atl AL061893 54.7000 -50.0000 EX 50 -4 54.7000 -50.0000 EX 50 11 91
1893228N18340 1893 31 NA NA NOT_NAMED 1893-09-01 15:00:00 ET 54.6217 -49.0629 main 459 459 P____________P AL061893 54.6217 -49.0629 EX 50 -4 54.6217 -49.0629 EX 50 11 100
1893228N18340 1893 31 NA NA NOT_NAMED 1893-09-01 18:00:00 ET 54.5000 -48.1000 50 hurdat_atl main 518 518 O____________O hurdat_atl AL061893 54.5000 -48.1000 EX 50 -4 54.5000 -48.1000 EX 50 11 99
1893228N18340 1893 31 NA NA NOT_NAMED 1893-09-01 21:00:00 ET 54.4494 -47.1088 main 580 580 P____________P AL061893 54.4494 -47.1088 EX 50 -4 54.4494 -47.1088 EX 50 12 95
1893228N18340 1893 31 NA NA NOT_NAMED 1893-09-02 00:00:00 ET 54.4000 -46.1000 50 hurdat_atl main 625 621 O____________O hurdat_atl AL061893 54.4000 -46.1000 EX 50 -4 54.4000 -46.1000 EX 50 12 97
1893228N18340 1893 31 NA NA NOT_NAMED 1893-09-02 03:00:00 ET 54.3065 -45.1075 main 631 631 P____________P AL061893 54.3065 -45.1075 EX 50 -4 54.3065 -45.1075 EX 50 12 100
1893228N18340 1893 31 NA NA NOT_NAMED 1893-09-02 06:00:00 ET 54.2000 -44.1000 50 hurdat_atl main 643 643 O____________O hurdat_atl AL061893 54.2000 -44.1000 EX 50 -4 54.2000 -44.1000 EX 50 12 101
1893228N18340 1893 31 NA NA NOT_NAMED 1893-09-02 09:00:00 ET 54.0900 -43.1175 main 659 659 P____________P AL061893 54.0900 -43.1175 EX 50 -4 54.0900 -43.1175 EX 50 12 99
1893228N18340 1893 31 NA NA NOT_NAMED 1893-09-02 12:00:00 ET 54.0000 -42.0000 50 hurdat_atl main 678 678 O____________O hurdat_atl AL061893 54.0000 -42.0000 EX 50 -4 54.0000 -42.0000 EX 50 15 96
1893228N18340 1893 31 NA NA NOT_NAMED 1893-09-02 15:00:00 ET 53.9451 -40.6273 main 702 702 P____________P AL061893 53.9452 -40.6273 EX 50 -4 53.9452 -40.6273 EX 50 17 93
1893228N18340 1893 31 NA NA NOT_NAMED 1893-09-02 18:00:00 ET 53.9000 -39.1000 50 hurdat_atl main 727 O____________O hurdat_atl AL061893 53.9000 -39.1000 EX 50 -4 53.9000 -39.1000 EX 50 18 93

About IBTrACS Database

This database is a web-friendly format of International Best Track Archive for Climate Stewardship (IBTrACS), a global best track data archive curated by NOAA dating back to 1842.

Updated: 2021-12-01